Time;durP1;ratioP1;P1;durP2;ratioP2;P2;SDS_P1;SDS_P2;PMS_P1;PMS_P2;Temp;Humidity;BMP_temperature;BMP_pressure;BME280_temperature;BME280_humidity;BME280_pressure;Samples;Min_cycle;Max_cycle;Signal;HPM_P1;HPM_P2
2022/05/26 00:00:55;;;;;;;13.90;6.65;;;;;;;;;;5055947;28;20488;-64
2022/05/26 00:03:21;;;;;;;23.92;6.57;;;;;;;;;;5056406;28;20104;-65
2022/05/26 00:05:47;;;;;;;24.02;6.75;;;;;;;;;;5056320;28;20052;-65
2022/05/26 00:08:13;;;;;;;16.73;6.20;;;;;;;;;;5055820;28;20027;-65
2022/05/26 00:10:39;;;;;;;19.02;6.63;;;;;;;;;;5056024;28;20099;-64
2022/05/26 00:13:05;;;;;;;13.50;5.97;;;;;;;;;;5056029;28;20040;-65
2022/05/26 00:15:32;;;;;;;17.00;6.45;;;;;;;;;;5056514;28;20068;-65
2022/05/26 00:17:58;;;;;;;20.88;5.85;;;;;;;;;;5055933;28;20108;-65
2022/05/26 00:20:24;;;;;;;13.38;5.32;;;;;;;;;;5055672;28;20494;-65
2022/05/26 00:22:50;;;;;;;14.93;5.53;;;;;;;;;;5056172;28;20438;-64
2022/05/26 00:25:16;;;;;;;20.98;7.25;;;;;;;;;;5056118;28;20040;-65
2022/05/26 00:27:42;;;;;;;12.35;6.15;;;;;;;;;;5055874;28;20028;-64
2022/05/26 00:30:09;;;;;;;17.73;6.47;;;;;;;;;;5055296;28;20029;-65
2022/05/26 00:32:35;;;;;;;17.98;5.93;;;;;;;;;;5054858;28;20089;-65
2022/05/26 00:35:01;;;;;;;16.13;5.90;;;;;;;;;;5054985;28;20048;-65
2022/05/26 00:37:27;;;;;;;16.33;5.53;;;;;;;;;;5055233;28;20048;-65
2022/05/26 00:39:53;;;;;;;19.38;6.25;;;;;;;;;;5055166;28;20033;-65
2022/05/26 00:42:19;;;;;;;18.70;7.93;;;;;;;;;;5052237;28;20021;-65
2022/05/26 00:44:45;;;;;;;19.98;7.07;;;;;;;;;;5055094;28;20033;-65
2022/05/26 00:47:11;;;;;;;14.90;5.82;;;;;;;;;;5055143;28;20021;-65
2022/05/26 00:49:37;;;;;;;15.95;6.20;;;;;;;;;;5055776;28;20032;-65
2022/05/26 00:52:04;;;;;;;13.90;5.90;;;;;;;;;;5054775;28;20509;-65
2022/05/26 00:54:30;;;;;;;15.25;6.53;;;;;;;;;;5054830;28;20056;-65
2022/05/26 00:56:59;;;;;;;19.17;6.55;;;;;;;;;;5054409;28;20401;-65
2022/05/26 00:59:28;;;;;;;15.20;6.53;;;;;;;;;;5051996;28;20037;-66
2022/05/26 01:01:55;;;;;;;14.13;6.13;;;;;;;;;;5052395;28;20025;-65
2022/05/26 01:04:23;;;;;;;24.40;6.95;;;;;;;;;;5053288;28;20059;-65
2022/05/26 01:06:53;;;;;;;20.85;6.82;;;;;;;;;;5054808;28;20429;-65
2022/05/26 01:09:20;;;;;;;21.50;7.20;;;;;;;;;;5055021;28;20029;-64
2022/05/26 01:11:46;;;;;;;21.77;6.88;;;;;;;;;;5055174;28;20032;-64
2022/05/26 01:14:20;;;;;;;21.98;6.90;;;;;;;;;;5054540;28;20071;-64
2022/05/26 01:16:46;;;;;;;22.65;7.10;;;;;;;;;;5052831;28;20032;-65
2022/05/26 01:19:31;;;;;;;17.67;6.82;;;;;;;;;;5054594;28;20466;-65
2022/05/26 01:21:57;;;;;;;17.15;6.90;;;;;;;;;;5054472;28;20025;-65
2022/05/26 01:24:23;;;;;;;21.63;7.10;;;;;;;;;;5054794;28;20374;-64
2022/05/26 01:27:08;;;;;;;18.30;6.63;;;;;;;;;;5054758;28;20025;-65
2022/05/26 01:29:46;;;;;;;17.38;6.47;;;;;;;;;;5054169;28;20033;-66
2022/05/26 01:32:31;;;;;;;19.80;6.65;;;;;;;;;;5054492;28;20052;-65
2022/05/26 01:35:15;;;;;;;15.52;5.95;;;;;;;;;;5054550;28;20367;-65
2022/05/26 01:37:45;;;;;;;16.52;6.18;;;;;;;;;;5054505;28;20028;-65
2022/05/26 01:40:18;;;;;;;14.52;6.00;;;;;;;;;;5054310;28;20124;-65
2022/05/26 01:42:48;;;;;;;14.82;5.82;;;;;;;;;;5054843;28;20029;-65
2022/05/26 01:45:14;;;;;;;15.77;5.82;;;;;;;;;;5054196;28;20039;-64
2022/05/26 01:47:58;;;;;;;17.98;5.93;;;;;;;;;;5054404;28;20381;-64
2022/05/26 01:50:34;;;;;;;16.83;6.13;;;;;;;;;;5054314;28;20028;-65
2022/05/26 01:53:09;;;;;;;18.92;6.25;;;;;;;;;;5053808;28;20044;-65
2022/05/26 01:55:56;;;;;;;18.52;6.00;;;;;;;;;;5054151;28;20037;-66
2022/05/26 01:58:34;;;;;;;19.27;5.00;;;;;;;;;;5046793;28;20547;-64
2022/05/26 02:01:01;;;;;;;18.90;6.00;;;;;;;;;;5054000;28;20037;-65
2022/05/26 02:03:30;;;;;;;17.45;5.63;;;;;;;;;;5052906;28;20040;-65
2022/05/26 02:05:59;;;;;;;14.82;4.93;;;;;;;;;;5051852;28;20021;-65
2022/05/26 02:08:28;;;;;;;14.05;5.10;;;;;;;;;;5054096;28;20056;-65
2022/05/26 02:11:03;;;;;;;17.55;5.10;;;;;;;;;;5054149;28;20029;-64
2022/05/26 02:13:44;;;;;;;12.65;4.40;;;;;;;;;;5053932;28;20094;-65
2022/05/26 02:16:19;;;;;;;12.87;4.47;;;;;;;;;;5053839;28;20033;-65
2022/05/26 02:19:09;;;;;;;14.48;4.38;;;;;;;;;;5050105;28;20037;-65
2022/05/26 02:21:44;;;;;;;15.75;4.25;;;;;;;;;;5029974;28;20041;-65
2022/05/26 02:24:17;;;;;;;12.75;4.18;;;;;;;;;;5049737;28;20036;-64
2022/05/26 02:26:43;;;;;;;12.60;3.88;;;;;;;;;;5049631;28;20120;-65
2022/05/26 02:31:54;;;;;;;10.00;3.85;;;;;;;;;;5052668;28;20036;-65
2022/05/26 02:34:21;;;;;;;14.77;3.70;;;;;;;;;;5053556;28;20032;-65
2022/05/26 02:36:50;;;;;;;13.73;3.78;;;;;;;;;;5053612;28;20059;-65
2022/05/26 02:39:16;;;;;;;7.45;3.22;;;;;;;;;;5053310;28;20470;-64
2022/05/26 02:41:42;;;;;;;10.02;3.38;;;;;;;;;;5053186;28;20017;-64
2022/05/26 02:44:09;;;;;;;7.78;3.17;;;;;;;;;;5053306;28;20477;-66
2022/05/26 02:46:46;;;;;;;11.13;3.22;;;;;;;;;;5052042;28;20060;-65
2022/05/26 02:49:12;;;;;;;14.88;3.58;;;;;;;;;;5051169;28;20036;-65
2022/05/26 02:51:38;;;;;;;8.68;3.30;;;;;;;;;;5051142;28;20029;-65
2022/05/26 02:54:04;;;;;;;7.80;3.17;;;;;;;;;;5052661;28;20045;-65
2022/05/26 02:56:30;;;;;;;6.38;3.05;;;;;;;;;;5053199;28;20025;-64
2022/05/26 02:59:12;;;;;;;18.55;3.55;;;;;;;;;;5053197;28;20021;-65
2022/05/26 03:01:48;;;;;;;5.63;2.85;;;;;;;;;;5053135;28;20029;-65
2022/05/26 03:04:19;;;;;;;9.68;2.95;;;;;;;;;;5052313;28;20033;-65
2022/05/26 03:06:49;;;;;;;8.38;2.90;;;;;;;;;;5053367;28;20029;-65
2022/05/26 03:09:15;;;;;;;10.63;2.78;;;;;;;;;;5053041;28;20021;-65
2022/05/26 03:11:43;;;;;;;8.23;2.40;;;;;;;;;;5051566;28;20480;-65
2022/05/26 03:14:09;;;;;;;9.93;2.67;;;;;;;;;;5052787;28;20484;-65
2022/05/26 03:16:35;;;;;;;8.30;2.70;;;;;;;;;;5053065;28;20021;-64
2022/05/26 03:19:01;;;;;;;12.68;2.50;;;;;;;;;;5052940;28;20470;-65
2022/05/26 03:21:27;;;;;;;8.25;2.58;;;;;;;;;;5053099;28;20048;-65
2022/05/26 03:23:53;;;;;;;10.52;2.50;;;;;;;;;;5052865;28;20021;-64
2022/05/26 03:26:19;;;;;;;13.05;2.95;;;;;;;;;;5052657;28;20033;-64
2022/05/26 03:28:47;;;;;;;6.43;2.22;;;;;;;;;;5052736;28;20039;-65
2022/05/26 03:31:13;;;;;;;11.77;2.17;;;;;;;;;;5052885;28;20355;-64
2022/05/26 03:41:53;;;;;;;6.72;2.25;;;;;;;;;;5050576;28;20039;-65
2022/05/26 03:44:20;;;;;;;5.05;2.35;;;;;;;;;;5052543;28;20074;-64
2022/05/26 03:46:47;;;;;;;5.38;2.60;;;;;;;;;;5052715;28;20098;-65
2022/05/26 03:49:13;;;;;;;6.55;2.75;;;;;;;;;;5052694;28;20048;-64
2022/05/26 03:51:40;;;;;;;9.48;2.72;;;;;;;;;;5052791;28;20474;-65
2022/05/26 03:54:06;;;;;;;7.85;3.05;;;;;;;;;;5052618;28;20509;-65
2022/05/26 03:56:32;;;;;;;7.25;2.45;;;;;;;;;;5052582;28;20060;-64
2022/05/26 03:58:58;;;;;;;11.38;2.63;;;;;;;;;;5052336;28;20052;-64
2022/05/26 04:01:24;;;;;;;9.35;2.30;;;;;;;;;;5050141;28;20385;-65
2022/05/26 04:03:50;;;;;;;8.02;2.42;;;;;;;;;;5049823;28;20431;-66
2022/05/26 04:06:17;;;;;;;6.75;2.35;;;;;;;;;;5050378;28;20025;-64
2022/05/26 04:08:43;;;;;;;9.60;2.67;;;;;;;;;;5051298;28;20068;-65
2022/05/26 04:11:09;;;;;;;6.32;2.20;;;;;;;;;;5051248;28;20465;-65
2022/05/26 04:13:35;;;;;;;5.13;2.58;;;;;;;;;;5050218;28;20025;-65
2022/05/26 04:16:01;;;;;;;9.35;2.60;;;;;;;;;;5053725;28;20147;-65
2022/05/26 04:18:27;;;;;;;8.18;2.33;;;;;;;;;;5054249;28;20028;-65
2022/05/26 04:21:02;;;;;;;5.63;2.42;;;;;;;;;;5053714;28;20040;-65
2022/05/26 04:23:28;;;;;;;12.77;2.53;;;;;;;;;;5053917;28;20477;-65
2022/05/26 04:25:54;;;;;;;7.93;2.00;;;;;;;;;;5053900;28;20116;-64
2022/05/26 04:28:20;;;;;;;11.32;2.22;;;;;;;;;;5054475;28;20032;-65
2022/05/26 04:30:46;;;;;;;6.10;2.17;;;;;;;;;;5055247;28;20051;-65
2022/05/26 04:33:12;;;;;;;7.40;2.67;;;;;;;;;;5052770;28;20021;-65
2022/05/26 04:35:38;;;;;;;7.25;2.40;;;;;;;;;;5054540;28;20102;-64
2022/05/26 04:38:04;;;;;;;4.47;1.98;;;;;;;;;;5052798;28;20423;-65
2022/05/26 04:40:30;;;;;;;6.03;2.00;;;;;;;;;;5053111;28;20146;-65
2022/05/26 04:42:56;;;;;;;6.07;2.22;;;;;;;;;;5053116;28;20021;-65
2022/05/26 04:45:22;;;;;;;5.18;1.95;;;;;;;;;;5053377;28;20462;-65
2022/05/26 04:47:48;;;;;;;6.15;2.10;;;;;;;;;;5053253;28;20052;-65
2022/05/26 04:50:14;;;;;;;6.50;1.73;;;;;;;;;;5052033;28;20063;-64
2022/05/26 04:52:42;;;;;;;5.15;1.90;;;;;;;;;;5053289;28;20021;-65
2022/05/26 04:55:08;;;;;;;4.20;1.70;;;;;;;;;;5053506;28;20359;-64
2022/05/26 04:57:34;;;;;;;8.23;2.05;;;;;;;;;;5052810;28;20021;-65
2022/05/26 05:00:00;;;;;;;7.00;1.90;;;;;;;;;;5053810;28;20468;-65
2022/05/26 05:02:26;;;;;;;3.70;1.70;;;;;;;;;;5052838;28;20023;-65
2022/05/26 05:04:53;;;;;;;3.85;1.77;;;;;;;;;;5054972;28;20033;-65
2022/05/26 05:07:19;;;;;;;3.78;1.90;;;;;;;;;;5053466;28;20508;-65
2022/05/26 05:09:46;;;;;;;5.45;1.80;;;;;;;;;;5051773;28;20032;-65
2022/05/26 05:12:14;;;;;;;4.25;1.70;;;;;;;;;;5051351;28;20052;-65
2022/05/26 05:14:43;;;;;;;5.70;1.90;;;;;;;;;;5051486;28;20060;-65
2022/05/26 05:17:09;;;;;;;5.13;2.30;;;;;;;;;;5051502;28;20114;-64
2022/05/26 05:19:35;;;;;;;12.02;1.73;;;;;;;;;;5052173;28;20064;-64
2022/05/26 05:22:16;;;;;;;5.18;1.60;;;;;;;;;;5055011;28;20386;-64
2022/05/26 05:24:46;;;;;;;4.15;1.70;;;;;;;;;;5054547;28;20078;-64
2022/05/26 05:27:24;;;;;;;5.20;1.20;;;;;;;;;;5053944;28;20553;-65
2022/05/26 05:29:51;;;;;;;7.10;1.67;;;;;;;;;;5054511;28;20021;-65
2022/05/26 05:32:20;;;;;;;4.50;1.90;;;;;;;;;;5054518;28;20390;-65
2022/05/26 05:34:50;;;;;;;3.72;1.70;;;;;;;;;;5054833;28;20098;-65
2022/05/26 05:37:16;;;;;;;7.70;1.98;;;;;;;;;;5054709;28;20036;-65
2022/05/26 05:39:42;;;;;;;13.40;1.90;;;;;;;;;;5054048;28;20569;-65
2022/05/26 05:42:08;;;;;;;4.05;1.85;;;;;;;;;;5054202;28;20116;-65
2022/05/26 05:44:35;;;;;;;7.10;1.88;;;;;;;;;;5054575;28;20017;-64
2022/05/26 05:47:01;;;;;;;12.20;2.38;;;;;;;;;;5054493;28;20017;-65
2022/05/26 05:49:29;;;;;;;9.98;1.70;;;;;;;;;;5053973;28;20154;-68
2022/05/26 05:51:56;;;;;;;9.35;1.63;;;;;;;;;;5053258;28;20025;-65
2022/05/26 05:54:23;;;;;;;23.15;2.30;;;;;;;;;;5052970;28;20140;-64
2022/05/26 05:56:49;;;;;;;10.73;1.70;;;;;;;;;;5052656;28;20029;-64
2022/05/26 05:59:16;;;;;;;9.73;1.95;;;;;;;;;;5053188;28;20036;-65
2022/05/26 06:01:42;;;;;;;4.70;1.48;;;;;;;;;;5070356;28;20452;-63
2022/05/26 06:04:09;;;;;;;7.25;1.92;;;;;;;;;;5073265;28;20021;-64
2022/05/26 06:06:39;;;;;;;6.38;1.50;;;;;;;;;;5072750;28;20028;-64
2022/05/26 06:09:05;;;;;;;4.32;1.77;;;;;;;;;;5073081;28;20021;-66
2022/05/26 06:11:31;;;;;;;5.90;1.80;;;;;;;;;;5073272;28;20032;-66
2022/05/26 06:13:58;;;;;;;6.97;1.50;;;;;;;;;;5073304;28;20028;-64
2022/05/26 06:16:24;;;;;;;3.20;1.48;;;;;;;;;;5073412;28;20489;-64
2022/05/26 06:18:50;;;;;;;6.18;1.40;;;;;;;;;;5073070;28;20025;-65
2022/05/26 06:21:17;;;;;;;7.38;1.40;;;;;;;;;;5072971;28;20098;-65
2022/05/26 06:23:43;;;;;;;3.25;1.60;;;;;;;;;;5072913;28;20029;-66
2022/05/26 06:26:09;;;;;;;4.03;1.70;;;;;;;;;;5061010;28;20426;-68
2022/05/26 06:31:22;;;;;;;5.45;1.63;;;;;;;;;;5053230;28;20091;-66
2022/05/26 06:39:18;;;;;;;3.72;1.40;;;;;;;;;;5053201;28;20036;-66
2022/05/26 06:44:29;;;;;;;4.68;1.20;;;;;;;;;;5053570;28;20036;-66
2022/05/26 06:46:55;;;;;;;4.20;1.50;;;;;;;;;;5053446;28;20027;-66
2022/05/26 06:49:21;;;;;;;3.95;0.93;;;;;;;;;;5053252;28;20029;-66
2022/05/26 06:51:47;;;;;;;3.58;1.02;;;;;;;;;;5052989;28;20017;-66
2022/05/26 06:54:13;;;;;;;7.05;1.33;;;;;;;;;;5051518;28;20052;-70
2022/05/26 06:56:39;;;;;;;4.72;1.83;;;;;;;;;;5051896;28;20029;-65
2022/05/26 06:59:05;;;;;;;6.07;1.50;;;;;;;;;;5052889;28;20122;-66
2022/05/26 07:01:31;;;;;;;2.53;1.45;;;;;;;;;;5052019;28;20025;-65
2022/05/26 07:03:57;;;;;;;5.30;1.90;;;;;;;;;;5053191;28;20048;-66
2022/05/26 07:06:25;;;;;;;4.70;1.70;;;;;;;;;;5052971;28;20028;-65
2022/05/26 07:08:51;;;;;;;6.38;1.45;;;;;;;;;;5053374;28;20025;-65
2022/05/26 07:11:18;;;;;;;4.28;1.50;;;;;;;;;;5052953;28;20050;-66
2022/05/26 07:13:44;;;;;;;5.80;1.40;;;;;;;;;;5053102;28;20462;-66
2022/05/26 07:16:11;;;;;;;5.80;1.60;;;;;;;;;;5052864;28;20021;-66
2022/05/26 07:18:40;;;;;;;6.05;1.50;;;;;;;;;;5052883;28;20021;-66
2022/05/26 07:21:07;;;;;;;8.43;1.92;;;;;;;;;;5052934;28;20044;-66
2022/05/26 07:23:34;;;;;;;4.00;1.70;;;;;;;;;;5052993;28;20108;-65
2022/05/26 07:26:00;;;;;;;4.65;2.10;;;;;;;;;;5052762;28;20033;-66
2022/05/26 07:28:26;;;;;;;4.53;1.60;;;;;;;;;;5052908;28;20025;-65
2022/05/26 07:30:52;;;;;;;3.88;1.50;;;;;;;;;;5052753;28;20033;-65
2022/05/26 07:33:19;;;;;;;7.53;1.70;;;;;;;;;;5053262;28;20021;-66
2022/05/26 07:35:45;;;;;;;3.30;1.50;;;;;;;;;;5052891;28;20484;-66
2022/05/26 07:41:16;;;;;;;6.88;1.70;;;;;;;;;;5052846;28;20402;-66
2022/05/26 07:43:43;;;;;;;6.07;1.38;;;;;;;;;;5052985;28;20064;-65
2022/05/26 07:46:10;;;;;;;7.75;1.90;;;;;;;;;;5052546;28;20033;-66
2022/05/26 07:48:37;;;;;;;4.47;1.67;;;;;;;;;;5052793;28;20497;-66
2022/05/26 07:51:03;;;;;;;5.15;2.08;;;;;;;;;;5054910;28;20033;-66
2022/05/26 07:53:29;;;;;;;8.88;1.50;;;;;;;;;;5056496;28;20079;-66
2022/05/26 07:55:55;;;;;;;8.90;1.50;;;;;;;;;;5056695;28;20032;-66
2022/05/26 07:58:21;;;;;;;5.25;1.58;;;;;;;;;;5056363;28;20028;-70
2022/05/26 08:00:48;;;;;;;2.97;1.15;;;;;;;;;;5056403;28;20064;-66
2022/05/26 08:03:14;;;;;;;5.75;1.25;;;;;;;;;;5056323;28;20025;-66
2022/05/26 08:05:40;;;;;;;5.07;1.20;;;;;;;;;;5056199;28;20107;-66
2022/05/26 08:08:07;;;;;;;5.63;1.48;;;;;;;;;;5056288;28;20056;-66
2022/05/26 08:10:33;;;;;;;6.78;1.40;;;;;;;;;;5056087;28;20040;-66
2022/05/26 08:12:59;;;;;;;9.25;1.63;;;;;;;;;;5055809;28;20506;-66
2022/05/26 08:15:25;;;;;;;10.52;1.58;;;;;;;;;;5055935;28;20416;-70
2022/05/26 08:17:51;;;;;;;7.30;1.27;;;;;;;;;;5055437;28;20450;-70
2022/05/26 08:20:17;;;;;;;6.85;1.50;;;;;;;;;;5055764;28;20115;-67
2022/05/26 08:22:43;;;;;;;3.15;1.25;;;;;;;;;;5055791;28;20064;-65
2022/05/26 08:25:10;;;;;;;8.32;1.30;;;;;;;;;;5055770;28;20036;-66
2022/05/26 08:27:36;;;;;;;8.25;1.40;;;;;;;;;;5055816;28;20017;-66
2022/05/26 08:30:02;;;;;;;6.75;1.50;;;;;;;;;;5055829;28;20440;-66
2022/05/26 08:32:28;;;;;;;5.75;1.63;;;;;;;;;;5055596;28;20520;-71
2022/05/26 08:34:58;;;;;;;6.55;1.48;;;;;;;;;;5055781;28;20029;-65
2022/05/26 08:37:24;;;;;;;6.35;1.42;;;;;;;;;;5055920;28;20358;-65
2022/05/26 08:39:50;;;;;;;11.77;1.65;;;;;;;;;;5055692;28;20142;-66
2022/05/26 08:42:18;;;;;;;5.47;1.30;;;;;;;;;;5055674;28;20384;-66
2022/05/26 08:44:44;;;;;;;5.57;1.30;;;;;;;;;;5055518;28;20441;-66
2022/05/26 08:47:12;;;;;;;8.73;1.63;;;;;;;;;;5055293;28;20347;-67
2022/05/26 08:49:38;;;;;;;6.47;1.65;;;;;;;;;;5055321;28;20021;-65
2022/05/26 08:52:04;;;;;;;5.88;1.30;;;;;;;;;;5055341;28;20032;-66
2022/05/26 08:54:40;;;;;;;4.43;1.35;;;;;;;;;;5055093;28;20103;-66
2022/05/26 08:57:08;;;;;;;7.13;2.55;;;;;;;;;;5055105;28;20033;-66
2022/05/26 08:59:40;;;;;;;5.13;1.50;;;;;;;;;;5054731;28;20037;-66
2022/05/26 09:02:13;;;;;;;125.22;8.63;;;;;;;;;;5054028;28;20075;-66
2022/05/26 09:04:39;;;;;;;21.90;2.17;;;;;;;;;;5054533;28;20058;-66
2022/05/26 09:12:59;;;;;;;3.47;1.33;;;;;;;;;;5054568;28;20103;-66
2022/05/26 09:15:26;;;;;;;6.00;1.52;;;;;;;;;;5054511;28;20095;-66
2022/05/26 09:17:52;;;;;;;8.98;1.65;;;;;;;;;;5054457;28;20466;-65
2022/05/26 09:20:25;;;;;;;6.53;1.70;;;;;;;;;;5055013;28;20059;-66
2022/05/26 09:22:51;;;;;;;2.30;1.30;;;;;;;;;;5054857;28;20021;-71
2022/05/26 09:25:38;;;;;;;3.15;1.42;;;;;;;;;;5054644;28;20092;-66
2022/05/26 09:28:05;;;;;;;6.47;1.92;;;;;;;;;;5054671;28;20028;-66
2022/05/26 09:30:32;;;;;;;5.00;1.63;;;;;;;;;;5053722;28;20060;-66
2022/05/26 09:32:59;;;;;;;5.95;1.50;;;;;;;;;;5053817;28;20036;-66
2022/05/26 09:35:28;;;;;;;10.55;1.38;;;;;;;;;;5053058;28;20025;-66
2022/05/26 09:37:55;;;;;;;4.45;2.03;;;;;;;;;;5053952;28;20025;-67
2022/05/26 09:40:25;;;;;;;4.68;1.55;;;;;;;;;;5054412;28;20445;-66
2022/05/26 09:42:58;;;;;;;4.25;1.63;;;;;;;;;;5053374;28;20108;-66
2022/05/26 09:45:24;;;;;;;6.28;1.30;;;;;;;;;;5052561;28;20044;-67
2022/05/26 09:47:57;;;;;;;3.63;1.27;;;;;;;;;;5052521;28;20027;-69
2022/05/26 09:50:32;;;;;;;5.05;1.52;;;;;;;;;;5052744;28;20465;-66
2022/05/26 09:52:58;;;;;;;3.25;1.38;;;;;;;;;;5052847;28;20045;-68
2022/05/26 09:55:26;;;;;;;4.97;1.30;;;;;;;;;;5052703;28;20028;-67
2022/05/26 09:58:04;;;;;;;7.03;1.60;;;;;;;;;;5052719;28;20108;-71
2022/05/26 10:00:39;;;;;;;7.32;1.42;;;;;;;;;;5051688;28;20068;-68
2022/05/26 10:03:20;;;;;;;2.72;1.30;;;;;;;;;;5053064;28;20033;-67
2022/05/26 10:06:11;;;;;;;6.03;1.63;;;;;;;;;;5054064;28;20033;-66
2022/05/26 10:08:40;;;;;;;5.70;1.73;;;;;;;;;;5048173;28;20048;-67
2022/05/26 10:11:10;;;;;;;3.75;1.60;;;;;;;;;;5053034;28;20028;-66
2022/05/26 10:13:58;;;;;;;3.50;1.60;;;;;;;;;;5053737;28;20075;-66
2022/05/26 10:16:27;;;;;;;6.20;1.67;;;;;;;;;;5053898;28;20025;-67
2022/05/26 10:19:18;;;;;;;9.50;2.10;;;;;;;;;;5053698;28;20425;-66
2022/05/26 10:21:50;;;;;;;3.55;1.60;;;;;;;;;;5053651;28;20547;-66
2022/05/26 10:24:16;;;;;;;;;;;;;;;;;;5054113;28;20024;-66
2022/05/26 10:26:47;;;;;;;3.58;1.30;;;;;;;;;;5053183;28;20281;-66
2022/05/26 10:29:32;;;;;;;4.63;1.70;;;;;;;;;;5053350;28;20021;-71
2022/05/26 10:32:03;;;;;;;6.78;1.60;;;;;;;;;;5053016;28;20049;-67
2022/05/26 10:34:38;;;;;;;3.63;1.60;;;;;;;;;;5053099;28;20017;-66
2022/05/26 10:37:28;;;;;;;7.65;1.80;;;;;;;;;;5053417;28;20497;-66
2022/05/26 10:40:00;;;;;;;7.15;1.50;;;;;;;;;;5033478;28;20041;-66
2022/05/26 10:42:28;;;;;;;5.72;1.73;;;;;;;;;;5053334;28;20389;-70
2022/05/26 10:45:06;;;;;;;12.73;1.90;;;;;;;;;;5053410;28;20067;-66
2022/05/26 10:47:39;;;;;;;5.95;1.42;;;;;;;;;;5052680;28;20052;-66
2022/05/26 10:50:06;;;;;;;5.25;1.48;;;;;;;;;;5052968;28;20481;-67
2022/05/26 10:52:37;;;;;;;4.93;1.80;;;;;;;;;;5053088;28;20036;-67
2022/05/26 10:55:18;;;;;;;3.87;1.60;;;;;;;;;;4810779;28;20040;-67
2022/05/26 10:57:54;;;;;;;4.50;1.55;;;;;;;;;;5052112;28;20113;-66
2022/05/26 11:00:24;;;;;;;4.45;1.67;;;;;;;;;;5052394;28;20037;-67
2022/05/26 11:03:07;;;;;;;8.93;1.42;;;;;;;;;;5052561;28;20017;-70
2022/05/26 11:05:33;;;;;;;5.47;1.95;;;;;;;;;;5052843;28;20028;-66
2022/05/26 11:08:09;;;;;;;6.45;1.58;;;;;;;;;;5052552;28;20021;-70
2022/05/26 11:10:37;;;;;;;4.85;1.70;;;;;;;;;;5052331;28;20083;-67
2022/05/26 11:13:03;;;;;;;3.30;1.33;;;;;;;;;;5052314;28;20418;-66
2022/05/26 11:18:32;;;;;;;3.72;1.45;;;;;;;;;;5052766;28;20036;-66
2022/05/26 11:20:58;;;;;;;3.85;1.55;;;;;;;;;;5052659;28;20037;-67
2022/05/26 11:23:25;;;;;;;5.47;1.65;;;;;;;;;;5052634;28;20413;-67
2022/05/26 11:25:51;;;;;;;4.82;1.45;;;;;;;;;;5051963;28;20377;-67
2022/05/26 11:28:17;;;;;;;6.07;1.60;;;;;;;;;;5052785;28;20099;-66
2022/05/26 11:36:32;;;;;;;5.88;1.48;;;;;;;;;;5052640;28;20036;-66
2022/05/26 11:39:01;;;;;;;7.15;2.03;;;;;;;;;;5052414;28;20029;-67
2022/05/26 11:41:36;;;;;;;3.42;1.50;;;;;;;;;;5052458;28;20033;-66
2022/05/26 11:44:02;;;;;;;7.38;1.50;;;;;;;;;;5052592;28;20032;-66
2022/05/26 11:46:44;;;;;;;9.40;1.95;;;;;;;;;;5051940;28;20025;-66
2022/05/26 11:49:11;;;;;;;7.07;1.65;;;;;;;;;;5052727;28;20029;-70
2022/05/26 11:51:41;;;;;;;7.72;1.50;;;;;;;;;;5052137;28;20100;-66
2022/05/26 11:54:31;;;;;;;3.63;1.63;;;;;;;;;;5049984;28;20053;-66
2022/05/26 11:56:57;;;;;;;6.07;1.80;;;;;;;;;;5050345;28;20143;-66
2022/05/26 11:59:23;;;;;;;7.07;1.80;;;;;;;;;;5049062;28;20467;-66
2022/05/26 12:02:01;;;;;;;3.78;1.48;;;;;;;;;;5049710;28;20021;-66
2022/05/26 12:04:30;;;;;;;6.95;1.60;;;;;;;;;;5049295;28;20035;-66
2022/05/26 12:07:03;;;;;;;10.73;1.75;;;;;;;;;;5049388;28;20021;-67
2022/05/26 12:09:44;;;;;;;5.45;1.80;;;;;;;;;;5050609;28;20033;-66
2022/05/26 12:12:16;;;;;;;6.33;1.43;;;;;;;;;;5049755;28;20497;-66
2022/05/26 12:14:42;;;;;;;;;;;;;;;;;;5051502;28;20051;-66
2022/05/26 12:17:41;;;;;;;6.53;1.70;;;;;;;;;;5050856;28;19988;-66
2022/05/26 12:20:13;;;;;;;8.43;1.92;;;;;;;;;;5029691;28;20135;-66
2022/05/26 12:22:42;;;;;;;5.25;2.00;;;;;;;;;;5052646;28;20032;-66
2022/05/26 12:25:08;;;;;;;5.65;1.98;;;;;;;;;;5052653;28;20422;-66
2022/05/26 12:27:51;;;;;;;4.88;1.85;;;;;;;;;;5052328;28;20478;-66
2022/05/26 12:30:32;;;;;;;5.00;1.85;;;;;;;;;;5052267;28;20025;-66
2022/05/26 12:32:59;;;;;;;7.83;1.87;;;;;;;;;;5051783;28;20029;-66
2022/05/26 12:35:29;;;;;;;5.35;1.75;;;;;;;;;;5052141;28;20760;-66
2022/05/26 12:38:05;;;;;;;7.53;1.70;;;;;;;;;;5055054;28;20600;-66
2022/05/26 12:40:41;;;;;;;8.32;2.30;;;;;;;;;;5055188;28;20112;-68
2022/05/26 12:43:22;;;;;;;2.97;1.80;;;;;;;;;;5055403;28;20020;-67
2022/05/26 12:45:57;;;;;;;4.20;1.40;;;;;;;;;;5054727;28;20385;-67
2022/05/26 12:48:48;;;;;;;5.93;1.73;;;;;;;;;;5055376;28;20024;-67
2022/05/26 12:51:14;;;;;;;12.30;2.28;;;;;;;;;;5055424;28;20116;-67
2022/05/26 12:53:47;;;;;;;6.22;1.90;;;;;;;;;;5055136;28;20077;-66
2022/05/26 12:56:14;;;;;;;3.17;1.73;;;;;;;;;;5055324;28;20044;-67
2022/05/26 12:58:47;;;;;;;3.95;1.70;;;;;;;;;;5051708;28;20540;-66
2022/05/26 13:01:14;;;;;;;4.88;1.70;;;;;;;;;;5052355;28;20098;-66
2022/05/26 13:03:52;;;;;;;5.45;1.63;;;;;;;;;;5053950;28;20026;-66
2022/05/26 13:06:21;;;;;;;9.07;2.15;;;;;;;;;;5055233;28;20159;-65
2022/05/26 13:08:50;;;;;;;4.82;1.90;;;;;;;;;;5054206;28;20064;-65
2022/05/26 13:11:21;;;;;;;7.55;2.20;;;;;;;;;;5055412;28;20024;-65
2022/05/26 13:13:50;;;;;;;5.18;2.08;;;;;;;;;;5055243;28;20106;-65
2022/05/26 13:16:25;;;;;;;7.20;2.10;;;;;;;;;;5055178;28;20162;-66
2022/05/26 13:18:51;;;;;;;6.75;1.90;;;;;;;;;;5054686;28;20032;-65
2022/05/26 13:21:18;;;;;;;9.48;1.95;;;;;;;;;;5054737;28;20402;-65
2022/05/26 13:23:44;;;;;;;7.28;2.08;;;;;;;;;;5052530;28;20367;-65
2022/05/26 13:26:12;;;;;;;14.27;2.63;;;;;;;;;;5052004;28;20029;-66
2022/05/26 13:28:40;;;;;;;10.88;1.85;;;;;;;;;;5051858;28;20033;-66
2022/05/26 13:33:55;;;;;;;7.03;2.53;;;;;;;;;;5054946;28;20036;-66
2022/05/26 13:36:28;;;;;;;7.45;2.13;;;;;;;;;;5054689;28;20132;-65
2022/05/26 13:38:54;;;;;;;7.63;1.75;;;;;;;;;;5054027;28;20020;-65
2022/05/26 13:41:24;;;;;;;9.68;2.10;;;;;;;;;;5054227;28;20398;-65
2022/05/26 13:43:51;;;;;;;8.00;2.23;;;;;;;;;;5054215;28;20029;-66
2022/05/26 13:46:40;;;;;;;4.97;1.83;;;;;;;;;;5054270;28;20029;-66
2022/05/26 13:49:24;;;;;;;11.63;1.90;;;;;;;;;;5048300;28;20548;-66
2022/05/26 13:51:51;;;;;;;4.60;1.95;;;;;;;;;;5053699;28;20027;-66
2022/05/26 13:54:36;;;;;;;5.72;1.45;;;;;;;;;;5053365;28;20344;-66
2022/05/26 13:57:03;;;;;;;7.95;2.00;;;;;;;;;;5053484;28;20035;-66
2022/05/26 13:59:33;;;;;;;11.40;2.10;;;;;;;;;;5053896;28;20053;-65
2022/05/26 14:02:07;;;;;;;4.20;2.08;;;;;;;;;;5046666;28;20429;-65
2022/05/26 14:04:37;;;;;;;5.40;1.83;;;;;;;;;;5043758;28;20056;-65
2022/05/26 14:07:23;;;;;;;6.38;2.10;;;;;;;;;;5043288;28;20028;-65
2022/05/26 14:10:00;;;;;;;8.45;1.92;;;;;;;;;;5043722;28;20022;-65
2022/05/26 14:12:30;;;;;;;7.60;1.80;;;;;;;;;;5044248;28;20505;-65
2022/05/26 14:14:56;;;;;;;4.45;1.90;;;;;;;;;;5047287;28;20029;-65
2022/05/26 14:17:25;;;;;;;8.88;2.00;;;;;;;;;;5035963;28;20368;-65
2022/05/26 14:19:51;;;;;;;5.68;1.95;;;;;;;;;;5032510;28;20068;-66
2022/05/26 14:22:31;;;;;;;5.57;1.70;;;;;;;;;;5033244;28;20088;-66
2022/05/26 14:24:58;;;;;;;2.80;1.88;;;;;;;;;;5032817;28;20036;-66
2022/05/26 14:27:31;;;;;;;4.85;1.85;;;;;;;;;;5032397;28;20084;-66
2022/05/26 14:30:00;;;;;;;4.68;1.75;;;;;;;;;;5031196;28;20458;-66
2022/05/26 14:32:31;;;;;;;13.85;3.05;;;;;;;;;;5032349;28;20052;-65
2022/05/26 14:34:58;;;;;;;6.60;1.85;;;;;;;;;;5034526;28;20031;-66
2022/05/26 14:37:25;;;;;;;6.57;2.00;;;;;;;;;;5034667;28;20033;-66
2022/05/26 14:39:52;;;;;;;11.05;2.67;;;;;;;;;;5031684;28;20037;-66
2022/05/26 14:42:38;;;;;;;9.60;2.60;;;;;;;;;;5032274;28;20249;-66
2022/05/26 14:45:08;;;;;;;10.90;2.20;;;;;;;;;;5031830;28;20446;-65
2022/05/26 14:47:34;;;;;;;12.57;2.47;;;;;;;;;;5032146;28;20028;-65
2022/05/26 14:50:00;;;;;;;10.75;3.42;;;;;;;;;;5032143;28;20021;-66
2022/05/26 14:52:28;;;;;;;8.52;2.33;;;;;;;;;;5032176;28;20064;-65
2022/05/26 14:57:39;;;;;;;11.35;2.80;;;;;;;;;;5032238;28;20044;-65
2022/05/26 15:00:08;;;;;;;6.82;2.60;;;;;;;;;;5030749;28;20076;-65
2022/05/26 15:02:37;;;;;;;13.43;2.60;;;;;;;;;;5031740;28;20108;-65
2022/05/26 15:05:05;;;;;;;10.60;2.50;;;;;;;;;;5031494;28;20263;-66
2022/05/26 15:07:31;;;;;;;9.80;2.47;;;;;;;;;;5031378;28;20080;-65
2022/05/26 15:09:58;;;;;;;6.72;2.47;;;;;;;;;;5031018;28;20075;-67
2022/05/26 15:12:24;;;;;;;12.63;2.55;;;;;;;;;;5031771;28;20483;-65
2022/05/26 15:14:50;;;;;;;7.30;2.20;;;;;;;;;;5032031;28;20036;-63
2022/05/26 15:17:19;;;;;;;6.82;2.42;;;;;;;;;;5031083;28;20025;-65
2022/05/26 15:19:46;;;;;;;4.53;2.13;;;;;;;;;;5031599;28;20056;-69
2022/05/26 15:22:13;;;;;;;11.27;2.40;;;;;;;;;;5031538;28;20014;-65
2022/05/26 15:24:40;;;;;;;8.48;2.63;;;;;;;;;;5031258;28;20029;-70
2022/05/26 15:27:07;;;;;;;9.82;2.42;;;;;;;;;;5031314;28;20036;-65
2022/05/26 15:29:33;;;;;;;6.60;2.35;;;;;;;;;;5031702;28;20029;-65
2022/05/26 15:31:59;;;;;;;10.05;2.72;;;;;;;;;;5031368;28;20022;-65
2022/05/26 15:34:26;;;;;;;8.50;2.75;;;;;;;;;;5031656;28;20522;-65
2022/05/26 15:36:52;;;;;;;14.90;2.22;;;;;;;;;;5031745;28;20474;-66
2022/05/26 15:39:19;;;;;;;12.88;2.50;;;;;;;;;;5031393;28;20029;-65